createdAt,value
2018-04-25T09:13:49.718Z,21.60
2018-04-25T09:16:17.332Z,22.10
2018-04-25T09:19:47.545Z,23.00
2018-04-25T09:22:15.270Z,22.90
2018-04-25T09:24:42.953Z,23.30
2018-04-25T09:27:10.523Z,23.40
2018-04-25T09:29:38.963Z,23.60
2018-04-25T09:32:06.557Z,23.60
2018-04-25T09:34:34.976Z,23.70
2018-04-25T09:37:02.828Z,23.70
2018-04-25T09:39:30.764Z,23.80
2018-04-25T09:41:59.129Z,23.80
2018-04-25T09:44:27.566Z,23.90
2018-04-25T09:46:55.172Z,23.80
2018-04-25T09:49:22.792Z,23.90
2018-04-25T09:51:50.515Z,24.00
2018-04-25T09:54:18.063Z,24.00
2018-04-25T09:56:45.686Z,24.00
2018-04-25T09:59:13.357Z,24.00
2018-04-25T10:01:41.003Z,24.00
2018-04-25T10:04:08.628Z,24.00
2018-04-25T10:06:37.045Z,24.10
2018-04-25T10:09:04.827Z,24.00
2018-04-25T10:11:32.581Z,24.10
2018-04-25T10:14:00.218Z,24.20
2018-04-25T10:16:27.826Z,24.20
2018-04-25T10:18:55.479Z,24.30
2018-04-25T10:21:23.062Z,24.30
2018-04-25T10:23:51.519Z,24.20
2018-04-25T10:26:19.114Z,24.10
2018-04-25T10:28:46.742Z,24.10
2018-04-25T10:31:14.422Z,24.10
2018-04-25T10:33:42.911Z,24.20
2018-04-25T10:36:11.338Z,24.30
2018-04-25T10:38:38.980Z,24.20
2018-04-25T10:41:07.399Z,24.20
2018-04-25T10:43:35.110Z,24.20
2018-04-25T10:46:02.779Z,24.20
2018-04-25T10:48:31.325Z,24.30
2018-04-25T10:50:59.014Z,24.30
2018-04-25T10:53:26.602Z,24.40
2018-04-25T10:55:54.274Z,24.40
2018-04-25T10:58:21.962Z,24.40
2018-04-25T11:00:49.624Z,24.40
2018-04-25T11:03:17.264Z,24.40
2018-04-25T11:05:44.858Z,24.40
2018-04-25T11:08:12.481Z,24.40
2018-04-25T11:10:40.191Z,24.50
2018-04-25T11:13:08.655Z,24.50
2018-04-25T11:15:36.827Z,24.50
2018-04-25T11:18:04.555Z,24.50
2018-04-25T11:20:32.543Z,24.50
2018-04-25T11:23:00.591Z,24.60
2018-04-25T11:25:29.067Z,24.70
2018-04-25T11:27:56.826Z,24.70
2018-04-25T11:30:24.461Z,24.70
2018-04-25T11:32:52.046Z,24.80
2018-04-25T11:38:20.724Z,24.60
2018-04-25T11:40:48.392Z,24.40
2018-04-25T11:43:16.034Z,23.60
2018-04-25T11:45:44.432Z,22.90
2018-04-25T11:48:12.596Z,22.90
2018-04-25T11:50:40.980Z,22.70
2018-04-25T11:53:09.390Z,22.90
2018-04-25T11:55:38.089Z,23.10
2018-04-25T11:58:05.757Z,23.10
2018-04-25T12:00:33.581Z,23.00
2018-04-25T12:03:01.393Z,22.70
2018-04-25T12:05:29.262Z,22.80
2018-04-25T12:07:57.010Z,22.60
2018-04-25T12:10:26.532Z,22.20
2018-04-25T12:12:55.222Z,21.90
2018-04-25T12:15:23.653Z,21.80
2018-04-25T12:17:52.459Z,21.70
2018-04-25T12:20:20.125Z,21.80
2018-04-25T12:22:48.024Z,21.40
2018-04-25T12:25:16.529Z,21.40
2018-04-25T12:27:44.154Z,21.40
2018-04-25T12:30:11.800Z,21.40
2018-04-25T12:32:39.455Z,21.30
2018-04-25T12:35:07.806Z,21.20
2018-04-25T12:37:35.387Z,21.10
2018-04-25T12:40:03.845Z,20.70
2018-04-25T12:42:32.241Z,20.80
2018-04-25T12:45:00.042Z,20.80
2018-04-25T12:47:27.707Z,20.90
2018-04-25T12:49:55.294Z,20.90
2018-04-25T12:52:23.209Z,20.90
2018-04-25T12:54:51.698Z,21.00
2018-04-25T12:57:19.332Z,21.00
2018-04-25T12:59:46.943Z,20.90
2018-04-25T13:02:14.826Z,21.00
2018-04-25T13:04:42.521Z,20.90
2018-04-25T13:07:10.120Z,20.90
2018-04-25T13:09:37.778Z,21.00
2018-04-25T13:12:06.172Z,21.20
2018-04-25T13:14:33.809Z,21.20
2018-04-25T13:17:01.490Z,21.30
2018-04-25T13:19:29.775Z,21.50
2018-04-25T13:21:57.432Z,21.40
2018-04-25T13:24:25.063Z,21.30
2018-04-25T13:26:52.691Z,21.30
2018-04-25T13:29:20.312Z,21.50
2018-04-25T13:31:48.018Z,21.70
2018-04-25T13:34:15.622Z,21.70
2018-04-25T13:36:44.004Z,21.40
2018-04-25T13:39:12.322Z,21.30
2018-04-25T13:41:40.048Z,21.50
2018-04-25T13:44:07.714Z,21.50
2018-04-25T13:46:36.278Z,21.40
2018-04-25T13:49:03.904Z,21.30
2018-04-25T13:51:31.597Z,21.30
2018-04-25T13:53:59.247Z,21.20
2018-04-25T13:56:27.025Z,21.20
2018-04-25T13:58:54.722Z,21.30
2018-04-25T14:01:23.181Z,21.50
2018-04-25T14:03:50.807Z,21.50
2018-04-25T14:06:18.443Z,21.70
2018-04-25T14:08:46.092Z,21.90
2018-04-25T14:11:13.821Z,22.00
2018-04-25T14:13:42.284Z,21.90
2018-04-25T14:16:09.973Z,21.80
2018-04-25T14:18:37.586Z,21.80
2018-04-25T14:21:05.160Z,21.90
2018-04-25T14:23:32.784Z,21.80
2018-04-25T14:26:01.152Z,21.80
2018-04-25T14:28:29.362Z,21.70
2018-04-25T14:30:57.152Z,21.50
2018-04-25T14:33:24.854Z,20.80
2018-04-25T14:35:53.263Z,21.20
2018-04-25T14:38:20.847Z,21.20
2018-04-25T14:40:48.545Z,21.20
2018-04-25T14:43:16.158Z,21.20
2018-04-25T14:45:46.024Z,21.10
2018-04-25T14:48:14.892Z,20.80
2018-04-25T14:50:43.114Z,20.80
2018-04-25T14:53:13.675Z,20.90
2018-04-25T14:55:54.440Z,20.50
2018-04-25T14:58:23.119Z,20.50
2018-04-25T15:00:50.767Z,20.60
2018-04-25T15:03:19.612Z,20.80
2018-04-25T15:05:47.664Z,20.70
2018-04-25T15:08:15.378Z,20.60
2018-04-25T15:10:43.067Z,20.50
2018-04-25T15:13:11.416Z,20.40
2018-04-25T15:15:39.647Z,20.40
2018-04-25T15:18:07.293Z,20.20
2018-04-25T15:23:40.869Z,20.00
2018-04-25T15:26:09.382Z,19.90
2018-04-25T15:28:37.777Z,19.90
2018-04-25T15:31:05.528Z,19.80
2018-04-25T15:33:33.897Z,19.80
2018-04-25T15:36:02.318Z,19.80
2018-04-25T15:38:29.956Z,18.70
2018-04-25T15:40:57.898Z,19.70
2018-04-25T15:43:26.266Z,19.60
2018-04-25T15:45:54.010Z,19.60
2018-04-25T15:48:21.824Z,19.70
2018-04-25T15:50:50.355Z,19.70
2018-04-25T15:53:18.037Z,19.60
2018-04-25T15:55:45.686Z,19.50
2018-04-25T15:58:13.357Z,19.50
2018-04-25T16:00:41.870Z,19.60
2018-04-25T16:03:09.551Z,19.60
2018-04-25T16:05:37.174Z,19.40
2018-04-25T16:08:04.826Z,19.40
2018-04-25T16:10:32.435Z,19.50
2018-04-25T16:13:01.769Z,19.50
2018-04-25T16:15:29.402Z,19.50
2018-04-25T16:17:57.789Z,19.60
2018-04-25T16:20:25.415Z,19.60
2018-04-25T16:22:53.129Z,19.50
2018-04-25T16:25:20.718Z,19.40
2018-04-25T16:27:48.313Z,19.40
2018-04-25T16:30:16.085Z,19.40
2018-04-25T16:32:43.788Z,19.50
2018-04-25T16:35:11.920Z,19.60
2018-04-25T16:37:39.547Z,19.70
2018-04-25T16:40:07.150Z,19.80
2018-04-25T16:42:34.805Z,19.70
2018-04-25T16:45:03.292Z,19.50
2018-04-25T16:47:30.976Z,19.50
2018-04-25T16:49:58.900Z,19.60
2018-04-25T16:52:26.492Z,19.40
2018-04-25T16:54:55.063Z,19.70
2018-04-25T16:57:22.692Z,19.60
2018-04-25T16:59:50.346Z,19.80
2018-04-25T17:02:18.016Z,19.70
2018-04-25T17:04:45.674Z,19.60
2018-04-25T17:07:13.266Z,19.60
2018-04-25T17:09:40.949Z,19.60
2018-04-25T17:12:08.574Z,19.50
2018-04-25T17:14:36.151Z,19.60
2018-04-25T17:17:03.882Z,19.40
2018-04-25T17:19:32.513Z,19.20
2018-04-25T17:22:00.101Z,19.10
2018-04-25T17:24:28.493Z,18.80
2018-04-25T17:26:56.085Z,18.80
2018-04-25T17:29:23.705Z,18.80
2018-04-25T17:31:51.303Z,18.80
2018-04-25T17:34:18.960Z,18.80
2018-04-25T17:36:46.638Z,18.80
2018-04-25T17:39:14.949Z,18.60
2018-04-25T17:41:42.584Z,18.60
2018-04-25T17:44:10.219Z,18.60
2018-04-25T17:46:38.631Z,18.60
2018-04-25T17:49:06.211Z,18.60
2018-04-25T17:51:33.853Z,18.50
2018-04-25T17:54:01.434Z,18.40
2018-04-25T17:56:29.070Z,18.40
2018-04-25T17:58:56.703Z,18.40
2018-04-25T18:01:24.325Z,18.30
2018-04-25T18:03:51.909Z,18.20
2018-04-25T18:06:19.501Z,18.20
2018-04-25T18:08:47.165Z,18.20
2018-04-25T18:11:14.761Z,18.20
2018-04-25T18:13:42.392Z,18.10
2018-04-25T18:16:10.077Z,18.10
2018-04-25T18:18:37.725Z,18.10
2018-04-25T18:21:05.357Z,18.10
2018-04-25T18:23:32.967Z,18.10
2018-04-25T18:26:00.663Z,18.10
2018-04-25T18:28:29.055Z,18.00
2018-04-25T18:30:57.400Z,18.00
2018-04-25T18:33:25.039Z,18.00
2018-04-25T18:35:52.679Z,18.10
2018-04-25T18:38:20.321Z,18.10
2018-04-25T18:40:47.911Z,18.10
2018-04-25T18:43:15.548Z,18.00
2018-04-25T18:45:43.901Z,18.00
2018-04-25T18:48:12.275Z,17.90
2018-04-25T18:50:39.890Z,17.90
2018-04-25T18:53:07.761Z,17.80
2018-04-25T18:55:35.361Z,17.70
2018-04-25T18:58:02.992Z,17.60
2018-04-25T19:00:30.569Z,17.60
2018-04-25T19:02:58.174Z,17.60
2018-04-25T19:05:26.579Z,17.60
2018-04-25T19:07:54.181Z,17.60
2018-04-25T19:10:21.797Z,17.60
2018-04-25T19:12:49.413Z,17.50
2018-04-25T19:15:17.130Z,17.40
2018-04-25T19:17:44.713Z,17.30
2018-04-25T19:20:12.299Z,17.20
2018-04-25T19:22:39.941Z,17.20
2018-04-25T19:25:07.583Z,17.10
2018-04-25T19:27:35.266Z,17.10
2018-04-25T19:30:02.904Z,17.00
2018-04-25T19:32:30.529Z,17.10
2018-04-25T19:34:58.935Z,17.10
2018-04-25T19:37:26.546Z,17.00
2018-04-25T19:39:54.169Z,16.90
2018-04-25T19:42:21.793Z,16.90
2018-04-25T19:44:49.503Z,16.80
2018-04-25T19:47:17.061Z,16.70
2018-04-25T19:49:44.711Z,16.80
2018-04-25T19:52:12.337Z,16.70
2018-04-25T19:54:39.929Z,16.60
2018-04-25T19:57:08.333Z,16.60
2018-04-25T19:59:35.952Z,16.50
2018-04-25T20:02:06.620Z,16.50
2018-04-25T20:04:36.207Z,16.50
2018-04-25T20:07:06.872Z,16.40
2018-04-25T20:09:36.263Z,16.40
2018-04-25T20:12:05.663Z,16.30
2018-04-25T20:14:35.534Z,16.30
2018-04-25T20:17:05.620Z,16.20
2018-04-25T20:19:35.268Z,16.10
2018-04-25T20:22:06.938Z,15.90
2018-04-25T20:24:38.701Z,15.90
2018-04-25T20:27:08.586Z,15.90
2018-04-25T20:29:37.856Z,15.90
2018-04-25T20:32:08.756Z,15.90
2018-04-25T20:34:40.893Z,15.90
2018-04-25T20:37:10.513Z,15.90
2018-04-25T20:39:40.247Z,15.80
2018-04-25T20:42:10.883Z,15.70
2018-04-25T20:44:41.315Z,15.70
2018-04-25T20:47:13.407Z,15.70
2018-04-25T20:49:41.998Z,15.70
2018-04-25T20:52:11.295Z,15.80
2018-04-25T20:54:38.913Z,15.70
2018-04-25T20:57:06.494Z,15.70
2018-04-25T20:59:34.858Z,15.80
2018-04-25T21:02:03.209Z,15.70
2018-04-25T21:04:30.832Z,15.80
2018-04-25T21:06:58.490Z,15.80
2018-04-25T21:09:26.097Z,15.80
2018-04-25T21:11:53.735Z,15.70
2018-04-25T21:14:21.348Z,15.70
2018-04-25T21:16:49.703Z,15.60
2018-04-25T21:19:17.315Z,15.60
2018-04-25T21:21:44.913Z,15.60
2018-04-25T21:24:12.568Z,15.50
2018-04-25T21:26:40.133Z,15.40
2018-04-25T21:29:07.711Z,15.40
2018-04-25T21:31:36.130Z,15.30
2018-04-25T21:34:04.486Z,15.30
2018-04-25T21:36:32.109Z,15.20
2018-04-25T21:38:59.721Z,15.10
2018-04-25T21:41:28.159Z,14.90
2018-04-25T21:43:55.725Z,14.90
2018-04-25T21:46:23.380Z,14.80
2018-04-25T21:48:52.257Z,14.70
2018-04-25T21:51:20.010Z,14.60
2018-04-25T21:53:49.350Z,14.60
2018-04-25T21:56:17.053Z,14.60
2018-04-25T21:58:45.471Z,14.40
2018-04-25T22:01:13.153Z,14.40
2018-04-25T22:03:40.834Z,14.30
2018-04-25T22:06:08.445Z,14.30
2018-04-25T22:08:36.139Z,14.30
2018-04-25T22:11:03.768Z,14.30
2018-04-25T22:13:31.455Z,14.20
2018-04-25T22:15:59.089Z,14.10
2018-04-25T22:18:26.764Z,14.10
2018-04-25T22:20:54.355Z,14.00
2018-04-25T22:23:22.020Z,14.00
2018-04-25T22:25:49.706Z,14.00
2018-04-25T22:28:17.498Z,13.90
2018-04-25T22:30:45.170Z,13.80
2018-04-25T22:33:13.542Z,13.70
2018-04-25T22:35:41.921Z,13.70
2018-04-25T22:38:10.644Z,13.60
2018-04-25T22:40:38.313Z,13.60
2018-04-25T22:43:05.993Z,13.60
2018-04-25T22:45:33.575Z,13.60
2018-04-25T22:48:01.270Z,13.70
2018-04-25T22:50:29.113Z,13.70
2018-04-25T22:52:56.729Z,13.60
2018-04-25T22:55:24.341Z,13.40
2018-04-25T22:57:52.697Z,13.30
2018-04-25T23:00:20.749Z,13.20
2018-04-25T23:02:48.334Z,13.20
2018-04-25T23:05:15.955Z,13.20
2018-04-25T23:07:43.531Z,13.20
2018-04-25T23:10:11.165Z,13.10
2018-04-25T23:12:38.754Z,13.20
2018-04-25T23:15:06.394Z,13.10
2018-04-25T23:17:34.001Z,13.20
2018-04-25T23:20:01.677Z,13.20
2018-04-25T23:22:30.071Z,13.10
2018-04-25T23:24:58.545Z,13.10
2018-04-25T23:27:26.081Z,13.10
2018-04-25T23:29:53.700Z,13.10
2018-04-25T23:32:21.315Z,13.20
2018-04-25T23:34:48.926Z,13.20
2018-04-25T23:37:16.552Z,13.20
2018-04-25T23:39:44.144Z,13.30
2018-04-25T23:42:11.778Z,13.30
2018-04-25T23:44:39.524Z,13.30
2018-04-25T23:47:07.185Z,13.30
2018-04-25T23:49:34.763Z,13.20
2018-04-25T23:52:03.174Z,13.20
2018-04-25T23:54:30.751Z,13.20
2018-04-25T23:56:58.388Z,13.20
2018-04-25T23:59:26.729Z,13.20
